Time;durP1;ratioP1;P1;durP2;ratioP2;P2;SDS_P1;SDS_P2;PMS_P1;PMS_P2;Temp;Humidity;BMP_temperature;BMP_pressure;BME280_temperature;BME280_humidity;BME280_pressure;Samples;Min_cycle;Max_cycle;Signal;HPM_P1;HPM_P2
2021/07/08 00:01:45;;;;;;;6.85;3.90;;;19.20;79.00;;;;;;4976838;28;20524;-76
2021/07/08 00:04:12;;;;;;;6.00;3.72;;;19.10;79.10;;;;;;4994413;28;20077;-76
2021/07/08 00:06:38;;;;;;;6.45;3.45;;;19.10;79.20;;;;;;4994755;28;20058;-76
2021/07/08 00:09:08;;;;;;;6.05;3.78;;;19.10;79.30;;;;;;4993678;28;20022;-76
2021/07/08 00:11:34;;;;;;;7.03;4.07;;;19.00;79.30;;;;;;4993014;28;20026;-76
2021/07/08 00:14:00;;;;;;;8.57;3.83;;;19.00;79.30;;;;;;4976098;28;20030;-76
2021/07/08 00:16:27;;;;;;;5.03;3.17;;;19.00;79.40;;;;;;4976887;28;20109;-76
2021/07/08 00:18:53;;;;;;;7.32;3.20;;;19.00;79.40;;;;;;4976017;28;20034;-76
2021/07/08 00:21:20;;;;;;;6.63;3.78;;;19.00;79.50;;;;;;4993665;28;20054;-76
2021/07/08 00:23:46;;;;;;;5.93;3.10;;;19.00;79.60;;;;;;4975944;28;20085;-76
2021/07/08 00:26:12;;;;;;;7.47;4.05;;;19.00;79.80;;;;;;4994198;28;20100;-76
2021/07/08 00:28:37;;;;;;;6.22;4.10;;;18.90;79.90;;;;;;4976458;28;20477;-76
2021/07/08 00:31:03;;;;;;;7.10;3.40;;;18.90;79.90;;;;;;4975691;28;20023;-77
2021/07/08 00:33:29;;;;;;;7.80;3.80;;;18.90;79.80;;;;;;4994238;28;20029;-77
2021/07/08 00:35:55;;;;;;;6.35;3.95;;;18.90;80.00;;;;;;4975760;28;20462;-76
2021/07/08 00:38:20;;;;;;;8.15;3.85;;;18.90;80.00;;;;;;4976296;28;20018;-76
2021/07/08 00:40:47;;;;;;;5.35;3.20;;;18.90;80.00;;;;;;4975607;28;20027;-77
2021/07/08 00:43:13;;;;;;;6.55;3.70;;;18.90;80.10;;;;;;4976066;28;20113;-76
2021/07/08 00:45:39;;;;;;;8.63;3.70;;;18.90;80.20;;;;;;4993616;28;20018;-76
2021/07/08 00:48:05;;;;;;;6.43;3.72;;;18.90;80.30;;;;;;4992973;28;20482;-76
2021/07/08 00:50:45;;;;;;;4.80;3.35;;;18.80;80.30;;;;;;4976261;28;20022;-77
2021/07/08 00:53:13;;;;;;;6.47;3.42;;;18.80;80.60;;;;;;4993468;28;20030;-76
2021/07/08 00:55:40;;;;;;;5.28;3.08;;;18.80;80.50;;;;;;4993106;28;20030;-76
2021/07/08 00:58:09;;;;;;;6.20;3.35;;;18.80;80.60;;;;;;4974896;28;20038;-77
2021/07/08 01:00:36;;;;;;;5.32;3.17;;;18.80;80.70;;;;;;4993381;28;20026;-76
2021/07/08 01:03:10;;;;;;;6.38;3.40;;;18.80;80.70;;;;;;4975269;28;20030;-76
2021/07/08 01:05:38;;;;;;;6.53;3.63;;;18.80;80.70;;;;;;4993293;28;20019;-76
2021/07/08 01:08:05;;;;;;;6.63;3.80;;;18.90;80.70;;;;;;4975083;28;20023;-75
2021/07/08 01:10:31;;;;;;;4.90;3.20;;;18.90;80.60;;;;;;4975756;28;20030;-75
2021/07/08 01:12:58;;;;;;;4.28;3.03;;;18.90;80.60;;;;;;4974682;28;20085;-76
2021/07/08 01:15:24;;;;;;;7.82;3.70;;;18.90;80.70;;;;;;4975587;28;20026;-75
2021/07/08 01:17:50;;;;;;;4.65;3.05;;;18.90;80.80;;;;;;4975027;28;20356;-75
2021/07/08 01:20:18;;;;;;;5.85;3.20;;;18.90;80.90;;;;;;4975521;28;20026;-76
2021/07/08 01:22:44;;;;;;;11.30;3.60;;;18.90;81.00;;;;;;4975534;28;20034;-76
2021/07/08 01:25:13;;;;;;;5.85;3.42;;;18.80;81.00;;;;;;4974929;28;20485;-76
2021/07/08 01:27:39;;;;;;;6.00;3.45;;;18.80;81.10;;;;;;4975522;28;20104;-75
2021/07/08 01:30:07;;;;;;;6.80;3.17;;;18.80;81.10;;;;;;4992380;28;20026;-76
2021/07/08 01:32:34;;;;;;;7.88;3.58;;;18.80;81.30;;;;;;4975290;28;20031;-75
2021/07/08 01:35:00;;;;;;;6.07;3.63;;;18.80;81.30;;;;;;4974929;28;20105;-75
2021/07/08 01:37:25;;;;;;;7.35;3.72;;;18.80;81.40;;;;;;4975386;28;20419;-75
2021/07/08 01:39:51;;;;;;;5.90;3.45;;;18.80;81.40;;;;;;4974600;28;20069;-76
2021/07/08 01:42:17;;;;;;;5.30;2.72;;;18.80;81.40;;;;;;4975279;28;20067;-75
2021/07/08 01:44:42;;;;;;;5.70;3.08;;;18.80;81.30;;;;;;4975267;28;20014;-75
2021/07/08 01:47:08;;;;;;;4.70;3.28;;;18.90;81.30;;;;;;4974592;28;20441;-75
2021/07/08 01:49:34;;;;;;;7.68;3.72;;;18.90;81.30;;;;;;4975164;28;20018;-75
2021/07/08 01:52:00;;;;;;;5.28;3.35;;;18.90;81.30;;;;;;4974115;28;20038;-75
2021/07/08 01:54:26;;;;;;;5.68;3.72;;;18.90;81.30;;;;;;4992295;28;20022;-75
2021/07/08 01:56:51;;;;;;;8.75;3.63;;;18.90;81.40;;;;;;4974333;28;20113;-76
2021/07/08 01:59:17;;;;;;;6.45;3.45;;;19.00;81.50;;;;;;4992541;28;20031;-75
2021/07/08 02:01:43;;;;;;;6.55;3.67;;;19.00;81.60;;;;;;4992616;28;20030;-75
2021/07/08 02:04:09;;;;;;;5.72;3.53;;;19.00;81.60;;;;;;4974387;28;20029;-76
2021/07/08 02:06:34;;;;;;;6.13;3.92;;;18.90;81.60;;;;;;4975037;28;20053;-76
2021/07/08 02:09:00;;;;;;;6.85;4.35;;;18.90;81.70;;;;;;4974039;28;20483;-75
2021/07/08 02:11:26;;;;;;;6.80;3.80;;;19.00;81.80;;;;;;4974924;28;20042;-75
2021/07/08 02:13:52;;;;;;;7.38;4.20;;;19.00;81.80;;;;;;4991511;28;20026;-75
2021/07/08 02:16:17;;;;;;;6.38;3.85;;;19.00;81.80;;;;;;4992124;28;20073;-75
2021/07/08 02:18:44;;;;;;;6.28;3.75;;;19.00;81.80;;;;;;4974890;28;20118;-75
2021/07/08 02:21:11;;;;;;;7.72;3.75;;;19.00;81.90;;;;;;4974121;28;20093;-75
2021/07/08 02:23:38;;;;;;;7.68;3.97;;;19.00;81.90;;;;;;4992376;28;20027;-76
2021/07/08 02:26:07;;;;;;;8.80;4.40;;;19.00;81.90;;;;;;4974249;28;20027;-76
2021/07/08 02:28:33;;;;;;;7.72;4.82;;;19.00;82.00;;;;;;4992353;28;20033;-76
2021/07/08 02:30:59;;;;;;;9.68;4.85;;;19.00;82.10;;;;;;4974304;28;20027;-76
2021/07/08 02:33:25;;;;;;;8.50;4.60;;;18.90;82.30;;;;;;4974733;28;20101;-76
2021/07/08 02:35:52;;;;;;;8.00;4.47;;;18.90;82.50;;;;;;4977325;28;20018;-76
2021/07/08 02:38:18;;;;;;;7.68;4.60;;;18.80;82.50;;;;;;4995941;28;20110;-76
2021/07/08 02:40:44;;;;;;;7.70;4.40;;;18.80;82.60;;;;;;4995711;28;20113;-75
2021/07/08 02:43:10;;;;;;;6.25;3.65;;;18.80;82.70;;;;;;4977804;28;20026;-75
2021/07/08 02:45:39;;;;;;;8.85;4.10;;;18.80;82.80;;;;;;4978387;28;20382;-76
2021/07/08 02:48:08;;;;;;;6.40;4.05;;;18.80;82.90;;;;;;4977772;28;20027;-75
2021/07/08 02:50:36;;;;;;;7.95;4.03;;;18.70;82.90;;;;;;4995763;28;20068;-75
2021/07/08 02:53:02;;;;;;;7.57;3.65;;;18.70;83.00;;;;;;4977460;28;20496;-75
2021/07/08 02:55:28;;;;;;;6.93;4.10;;;18.70;83.10;;;;;;4995647;28;20025;-75
2021/07/08 02:57:54;;;;;;;7.80;4.07;;;18.60;83.10;;;;;;4977676;28;20387;-77
2021/07/08 03:00:24;;;;;;;8.38;4.13;;;18.60;83.00;;;;;;4978180;28;20022;-75
2021/07/08 03:02:51;;;;;;;6.97;3.72;;;18.60;83.20;;;;;;4978059;28;20030;-75
2021/07/08 03:05:16;;;;;;;6.55;3.78;;;18.60;83.20;;;;;;4977361;28;20113;-75
2021/07/08 03:07:42;;;;;;;7.78;3.92;;;18.60;83.20;;;;;;4977874;28;20149;-76
2021/07/08 03:10:11;;;;;;;6.22;3.22;;;18.60;83.20;;;;;;4977255;28;20019;-75
2021/07/08 03:12:38;;;;;;;7.53;3.60;;;18.60;83.20;;;;;;4977722;28;20038;-75
2021/07/08 03:15:09;;;;;;;6.38;3.13;;;18.70;83.10;;;;;;4977204;28;20026;-76
2021/07/08 03:17:35;;;;;;;6.72;4.03;;;18.70;83.00;;;;;;4977985;28;20065;-75
2021/07/08 03:20:03;;;;;;;5.43;3.50;;;18.70;82.90;;;;;;4994683;28;20046;-77
2021/07/08 03:22:28;;;;;;;6.60;3.58;;;18.70;83.00;;;;;;4977513;28;20058;-77
2021/07/08 03:24:54;;;;;;;5.90;3.78;;;18.70;82.90;;;;;;4977749;28;20026;-76
2021/07/08 03:27:20;;;;;;;7.63;3.63;;;18.80;83.00;;;;;;4976991;28;20459;-76
2021/07/08 03:29:45;;;;;;;6.88;3.42;;;18.80;83.00;;;;;;4995386;28;20027;-76
2021/07/08 03:32:11;;;;;;;6.40;3.67;;;18.80;82.90;;;;;;4994107;28;20113;-78
2021/07/08 03:34:37;;;;;;;6.93;3.83;;;18.80;82.90;;;;;;4995156;28;20402;-78
2021/07/08 03:37:03;;;;;;;6.50;3.58;;;18.80;82.80;;;;;;4976873;28;20057;-75
2021/07/08 03:39:28;;;;;;;5.80;3.72;;;18.80;82.90;;;;;;4977335;28;20462;-77
2021/07/08 03:41:54;;;;;;;5.47;3.67;;;18.80;82.90;;;;;;4977388;28;20027;-78
2021/07/08 03:44:20;;;;;;;5.85;3.88;;;18.80;83.00;;;;;;4993916;28;20029;-76
2021/07/08 03:46:45;;;;;;;5.90;3.55;;;18.80;82.90;;;;;;4994735;28;20026;-75
2021/07/08 03:49:11;;;;;;;8.20;4.60;;;18.80;82.90;;;;;;4976585;28;20026;-75
2021/07/08 03:51:38;;;;;;;6.05;3.92;;;18.80;82.90;;;;;;4977077;28;20031;-75
2021/07/08 03:54:03;;;;;;;7.60;4.80;;;18.80;82.90;;;;;;4994325;28;20027;-75
2021/07/08 03:56:29;;;;;;;8.07;4.22;;;18.80;82.90;;;;;;4977150;28;20463;-74
2021/07/08 03:58:55;;;;;;;6.05;3.63;;;18.90;83.00;;;;;;4994494;28;20081;-75
2021/07/08 04:01:21;;;;;;;5.97;3.70;;;18.90;83.00;;;;;;4993892;28;20026;-76
2021/07/08 04:03:46;;;;;;;6.38;3.80;;;18.90;83.00;;;;;;4977049;28;20022;-75
2021/07/08 04:06:12;;;;;;;7.75;4.20;;;18.90;83.00;;;;;;4994111;28;20126;-77
2021/07/08 04:08:38;;;;;;;7.43;3.97;;;18.90;83.00;;;;;;4994329;28;20027;-77
2021/07/08 04:11:04;;;;;;;7.55;3.92;;;18.90;83.10;;;;;;4993502;28;20029;-77
2021/07/08 04:13:30;;;;;;;7.32;3.83;;;18.90;83.70;;;;;;4976690;28;20039;-77
2021/07/08 04:15:55;;;;;;;8.77;3.70;;;18.90;83.20;;;;;;4994295;28;20034;-76
2021/07/08 04:18:21;;;;;;;6.32;3.85;;;19.00;83.30;;;;;;4993637;28;20029;-76
2021/07/08 04:20:47;;;;;;;7.75;3.63;;;19.00;83.30;;;;;;4976349;28;20077;-76
2021/07/08 04:23:13;;;;;;;5.22;3.67;;;19.00;83.40;;;;;;4975999;28;20112;-77
2021/07/08 04:25:39;;;;;;;8.70;4.95;;;18.90;83.40;;;;;;4976439;28;20518;-76
2021/07/08 04:28:07;;;;;;;5.70;4.22;;;18.90;83.40;;;;;;4975939;28;20049;-76
2021/07/08 04:30:34;;;;;;;7.60;4.80;;;18.90;83.40;;;;;;4994028;28;20072;-76
2021/07/08 04:33:00;;;;;;;6.60;3.85;;;18.90;83.50;;;;;;4975899;28;20121;-77
2021/07/08 04:35:30;;;;;;;6.60;4.68;;;18.90;83.60;;;;;;4976347;28;20451;-75
2021/07/08 04:37:57;;;;;;;8.00;3.83;;;18.80;83.60;;;;;;4976528;28;20137;-75
2021/07/08 04:40:23;;;;;;;9.40;4.82;;;18.80;83.60;;;;;;4975762;28;20269;-75
2021/07/08 04:42:51;;;;;;;7.63;4.28;;;18.80;83.70;;;;;;4976233;28;20121;-75
2021/07/08 04:45:17;;;;;;;6.90;4.05;;;18.90;83.80;;;;;;4993538;28;20034;-76
2021/07/08 04:47:44;;;;;;;9.13;4.00;;;18.80;83.90;;;;;;4993665;28;20026;-76
2021/07/08 04:50:16;;;;;;;9.90;5.03;;;18.80;84.10;;;;;;4975504;28;20053;-76
2021/07/08 04:52:43;;;;;;;9.63;5.10;;;18.80;84.20;;;;;;4976045;28;20030;-76
2021/07/08 04:55:10;;;;;;;6.78;4.20;;;18.80;84.10;;;;;;4975421;28;20033;-76
2021/07/08 04:57:36;;;;;;;6.63;4.05;;;18.80;84.10;;;;;;4975518;28;20025;-76
2021/07/08 05:00:08;;;;;;;7.85;4.22;;;18.90;84.10;;;;;;4992556;28;20030;-79
2021/07/08 05:02:39;;;;;;;6.80;4.15;;;19.00;84.20;;;;;;4975791;28;20046;-76
2021/07/08 05:05:09;;;;;;;6.72;3.88;;;19.00;84.00;;;;;;4975589;28;20108;-76
2021/07/08 05:07:35;;;;;;;8.00;4.20;;;19.00;83.90;;;;;;4975817;28;20129;-75
2021/07/08 05:10:03;;;;;;;8.88;4.22;;;19.10;83.90;;;;;;4975358;28;20027;-75
2021/07/08 05:12:29;;;;;;;5.80;4.30;;;19.10;83.80;;;;;;4975502;28;20119;-76
2021/07/08 05:14:55;;;;;;;7.25;4.47;;;19.20;83.90;;;;;;4975596;28;20050;-76
2021/07/08 05:17:20;;;;;;;8.48;4.78;;;19.20;83.80;;;;;;4975096;28;20050;-76
2021/07/08 05:19:46;;;;;;;9.60;5.38;;;19.20;83.80;;;;;;4975539;28;20019;-76
2021/07/08 05:22:14;;;;;;;9.95;5.88;;;19.20;83.80;;;;;;4974400;28;20133;-75
2021/07/08 05:24:40;;;;;;;7.57;4.15;;;19.30;83.90;;;;;;4993189;28;20045;-76
2021/07/08 05:27:05;;;;;;;7.93;4.68;;;19.30;83.80;;;;;;4974800;28;20026;-76
2021/07/08 05:29:31;;;;;;;9.73;4.97;;;19.40;83.90;;;;;;4992595;28;20029;-75
2021/07/08 05:31:57;;;;;;;7.53;5.00;;;19.40;83.70;;;;;;4975355;28;20126;-75
2021/07/08 05:34:22;;;;;;;8.98;5.25;;;19.50;83.70;;;;;;4991881;28;20109;-75
2021/07/08 05:36:48;;;;;;;8.43;4.63;;;19.50;83.50;;;;;;4975369;28;20085;-75
2021/07/08 05:39:14;;;;;;;9.68;5.22;;;19.60;83.50;;;;;;4974615;28;20026;-75
2021/07/08 05:41:40;;;;;;;9.90;5.38;;;19.60;83.50;;;;;;4992657;28;20117;-75
2021/07/08 05:44:06;;;;;;;9.60;4.55;;;19.60;83.40;;;;;;4992019;28;20037;-77
2021/07/08 05:46:32;;;;;;;11.63;5.40;;;19.60;83.30;;;;;;4992689;28;20026;-76
2021/07/08 05:48:58;;;;;;;8.32;5.43;;;19.60;83.30;;;;;;4975156;28;20035;-76
2021/07/08 05:51:24;;;;;;;8.02;5.03;;;19.70;83.30;;;;;;4974542;28;20022;-76
2021/07/08 05:53:50;;;;;;;6.93;4.43;;;19.70;83.30;;;;;;4975190;28;20032;-75
2021/07/08 05:56:16;;;;;;;8.73;5.20;;;19.70;83.20;;;;;;4974458;28;20379;-76
2021/07/08 05:58:41;;;;;;;8.85;5.25;;;19.80;83.10;;;;;;4975011;28;20032;-76
2021/07/08 06:01:07;;;;;;;9.98;5.25;;;19.80;83.20;;;;;;4991535;28;20018;-78
2021/07/08 06:03:33;;;;;;;9.13;5.85;;;19.90;83.10;;;;;;4975083;28;20037;-76
2021/07/08 06:05:59;;;;;;;9.23;5.10;;;19.90;82.90;;;;;;4974937;28;20501;-75
2021/07/08 06:08:24;;;;;;;10.80;6.00;;;19.90;82.70;;;;;;4991824;28;20027;-76
2021/07/08 06:10:50;;;;;;;14.52;5.88;;;20.00;82.70;;;;;;4977703;28;20072;-76
2021/07/08 06:13:15;;;;;;;11.80;5.78;;;20.00;82.70;;;;;;4995456;28;20034;-75
2021/07/08 06:15:41;;;;;;;11.15;6.32;;;19.90;82.60;;;;;;4996075;28;20474;-75
2021/07/08 06:18:07;;;;;;;10.80;5.78;;;19.90;82.80;;;;;;4978547;28;20049;-77
2021/07/08 06:20:33;;;;;;;9.65;5.63;;;19.80;83.10;;;;;;4995999;28;20386;-77
2021/07/08 06:22:59;;;;;;;8.80;5.63;;;19.70;83.20;;;;;;4979036;28;20437;-77
2021/07/08 06:25:29;;;;;;;10.13;5.70;;;19.60;83.40;;;;;;4978044;28;20033;-77
2021/07/08 06:27:55;;;;;;;12.15;6.32;;;19.60;83.50;;;;;;4995820;28;20441;-76
2021/07/08 06:30:20;;;;;;;10.43;5.30;;;19.60;83.50;;;;;;4995515;28;20058;-76
2021/07/08 06:32:46;;;;;;;12.52;6.03;;;19.60;83.50;;;;;;4978498;28;20485;-77
2021/07/08 06:35:16;;;;;;;11.98;6.38;;;19.60;83.60;;;;;;4977969;28;20026;-77
2021/07/08 06:37:41;;;;;;;10.48;6.18;;;19.50;83.60;;;;;;4995948;28;20109;-75
2021/07/08 06:40:08;;;;;;;11.07;6.35;;;19.50;83.50;;;;;;4978361;28;20129;-75
2021/07/08 06:42:34;;;;;;;10.27;5.57;;;19.50;83.50;;;;;;4978094;28;20026;-75
2021/07/08 06:45:00;;;;;;;15.00;6.85;;;19.60;83.50;;;;;;4978280;28;20019;-76
2021/07/08 06:47:31;;;;;;;10.70;5.97;;;19.60;83.40;;;;;;4995264;28;20023;-78
2021/07/08 06:49:57;;;;;;;10.27;6.03;;;19.60;83.50;;;;;;4978180;28;20532;-75
2021/07/08 06:52:23;;;;;;;11.80;5.47;;;19.60;83.40;;;;;;4994941;28;20062;-75
2021/07/08 06:54:48;;;;;;;9.45;5.10;;;19.70;83.40;;;;;;4995397;28;20034;-75
2021/07/08 06:57:14;;;;;;;9.23;5.55;;;19.70;83.40;;;;;;4994934;28;20023;-75
2021/07/08 06:59:40;;;;;;;9.15;5.57;;;19.70;83.40;;;;;;4995520;28;20073;-75
2021/07/08 07:02:06;;;;;;;8.70;5.20;;;19.70;83.40;;;;;;4995461;28;20026;-75
2021/07/08 07:04:32;;;;;;;7.97;4.88;;;19.70;83.40;;;;;;4994563;28;20363;-75
2021/07/08 07:06:57;;;;;;;7.78;4.68;;;19.80;83.50;;;;;;4977898;28;20025;-76
2021/07/08 07:09:23;;;;;;;8.45;4.57;;;19.70;83.50;;;;;;4994863;28;20031;-75
2021/07/08 07:11:48;;;;;;;7.20;4.50;;;19.80;83.40;;;;;;4995284;28;20034;-75
2021/07/08 07:14:14;;;;;;;8.07;4.15;;;19.70;83.30;;;;;;4994622;28;20054;-76
2021/07/08 07:16:40;;;;;;;12.80;4.68;;;19.80;83.20;;;;;;4995321;28;20065;-75
2021/07/08 07:19:05;;;;;;;8.45;3.75;;;19.80;83.20;;;;;;4995029;28;20097;-75
2021/07/08 07:21:31;;;;;;;8.32;5.20;;;19.90;83.10;;;;;;4993440;28;20226;-75
2021/07/08 07:23:57;;;;;;;8.50;4.75;;;19.90;83.00;;;;;;4976473;28;20038;-75
2021/07/08 07:26:23;;;;;;;7.43;4.47;;;19.90;82.90;;;;;;4975881;28;20112;-75
2021/07/08 07:28:49;;;;;;;8.38;4.45;;;19.90;82.80;;;;;;4976398;28;20430;-75
2021/07/08 07:31:15;;;;;;;8.85;5.15;;;19.90;82.50;;;;;;4975756;28;20018;-75
2021/07/08 07:33:42;;;;;;;8.88;5.30;;;20.00;82.40;;;;;;4993926;28;20474;-76
2021/07/08 07:36:10;;;;;;;8.50;4.90;;;20.10;82.20;;;;;;4976572;28;20438;-76
2021/07/08 07:38:37;;;;;;;7.45;4.80;;;20.10;81.90;;;;;;4993193;28;20085;-76
2021/07/08 07:41:02;;;;;;;8.73;5.20;;;20.10;81.90;;;;;;4976348;28;20546;-76
2021/07/08 07:43:28;;;;;;;8.27;4.95;;;20.20;81.80;;;;;;4993090;28;20058;-76
2021/07/08 07:45:54;;;;;;;8.70;5.03;;;20.20;81.60;;;;;;4976136;28;20537;-76
2021/07/08 07:48:19;;;;;;;8.73;5.13;;;20.30;81.40;;;;;;4993023;28;20525;-76
2021/07/08 07:50:45;;;;;;;9.25;4.72;;;20.30;81.00;;;;;;4976284;28;20060;-76
2021/07/08 07:53:11;;;;;;;8.80;5.40;;;20.40;80.80;;;;;;4976130;28;20026;-76
2021/07/08 07:55:37;;;;;;;9.15;4.88;;;20.50;80.60;;;;;;4992933;28;20038;-76
2021/07/08 07:58:05;;;;;;;9.70;4.65;;;20.60;80.20;;;;;;4976094;28;20121;-76
2021/07/08 08:00:32;;;;;;;7.13;4.43;;;20.70;79.90;;;;;;4992969;28;20030;-76
2021/07/08 08:02:58;;;;;;;8.90;4.93;;;20.70;79.70;;;;;;4993542;28;20030;-76
2021/07/08 08:10:44;;;;;;;6.80;4.20;;;20.90;79.00;;;;;;4993578;28;20085;-75
2021/07/08 08:13:11;;;;;;;8.63;4.03;;;20.90;78.60;;;;;;4975708;28;20537;-76
2021/07/08 08:15:37;;;;;;;7.75;4.28;;;21.00;78.50;;;;;;4975129;28;20026;-75
2021/07/08 08:18:03;;;;;;;6.00;3.50;;;21.00;78.30;;;;;;4975678;28;20037;-76
2021/07/08 08:20:31;;;;;;;7.00;3.90;;;21.00;78.20;;;;;;4954033;28;1112636;-76
2021/07/08 08:22:57;;;;;;;8.63;3.60;;;21.10;77.90;;;;;;4976503;28;20053;-75
2021/07/08 08:25:23;;;;;;;6.63;3.40;;;21.10;77.80;;;;;;4975949;28;20121;-75
2021/07/08 08:27:49;;;;;;;6.03;3.25;;;21.10;77.60;;;;;;4993993;28;20028;-76
2021/07/08 08:30:16;;;;;;;6.78;3.85;;;21.10;77.50;;;;;;4976081;28;20109;-76
2021/07/08 08:32:43;;;;;;;5.60;3.00;;;21.20;77.60;;;;;;4975527;28;20504;-76
2021/07/08 08:35:10;;;;;;;6.45;3.55;;;21.20;77.40;;;;;;4993858;28;20050;-76
2021/07/08 08:37:36;;;;;;;7.25;3.58;;;21.30;77.30;;;;;;4975638;28;20034;-76
2021/07/08 08:40:04;;;;;;;7.45;3.95;;;21.40;77.00;;;;;;4976246;28;20022;-76
2021/07/08 08:42:30;;;;;;;5.43;3.03;;;21.40;76.80;;;;;;4975483;28;20031;-77
2021/07/08 08:44:56;;;;;;;8.27;3.75;;;21.40;76.80;;;;;;4976123;28;20076;-77
2021/07/08 08:47:23;;;;;;;5.78;3.10;;;21.40;76.70;;;;;;4993102;28;20038;-77
2021/07/08 08:49:53;;;;;;;6.72;3.58;;;21.50;76.70;;;;;;4976080;28;20026;-76
2021/07/08 08:52:19;;;;;;;5.93;3.08;;;21.50;76.60;;;;;;4992719;28;20026;-79
2021/07/08 08:54:45;;;;;;;5.38;3.38;;;21.50;76.40;;;;;;4976350;28;20035;-77
2021/07/08 08:57:10;;;;;;;6.55;3.00;;;21.60;76.20;;;;;;4975886;28;20118;-76
2021/07/08 08:59:36;;;;;;;6.68;3.20;;;21.50;76.20;;;;;;4974975;28;20030;-76
2021/07/08 09:02:14;;;;;;;8.10;3.00;;;21.60;76.20;;;;;;4993238;28;20026;-77
2021/07/08 09:04:40;;;;;;;7.90;3.08;;;21.60;75.90;;;;;;4992682;28;20026;-77
2021/07/08 09:07:30;;;;;;;6.03;3.30;;;21.70;75.80;;;;;;4993319;28;20034;-77
2021/07/08 09:10:11;;;;;;;7.13;3.37;;;21.90;75.40;;;;;;4993198;28;20023;-76
2021/07/08 09:12:37;;;;;;;5.40;3.17;;;22.00;74.90;;;;;;4992604;28;20040;-76
2021/07/08 09:15:17;;;;;;;7.10;3.20;;;22.10;74.60;;;;;;4992904;28;20101;-76
2021/07/08 09:17:44;;;;;;;4.55;3.05;;;22.30;74.10;;;;;;4974944;28;20589;-76
2021/07/08 09:20:13;;;;;;;6.60;2.88;;;22.40;73.90;;;;;;4993061;28;20041;-76
2021/07/08 09:22:39;;;;;;;5.15;2.65;;;22.50;73.60;;;;;;4974504;28;20086;-77
2021/07/08 09:25:21;;;;;;;4.85;2.85;;;22.60;73.30;;;;;;4975374;28;20026;-77
2021/07/08 09:27:48;;;;;;;4.90;2.75;;;22.70;72.80;;;;;;4992865;28;20468;-77
2021/07/08 09:30:24;;;;;;;5.60;2.97;;;22.70;72.70;;;;;;4975076;28;20072;-77
2021/07/08 09:32:50;;;;;;;5.57;2.67;;;22.80;72.30;;;;;;4975263;28;20038;-77
2021/07/08 09:35:34;;;;;;;7.13;3.35;;;22.80;72.10;;;;;;4975279;28;20092;-76
2021/07/08 09:38:07;;;;;;;4.90;2.88;;;22.80;71.90;;;;;;4975288;28;20431;-76
2021/07/08 09:40:33;;;;;;;5.32;3.15;;;22.80;71.90;;;;;;4974529;28;20224;-76
2021/07/08 09:42:59;;;;;;;5.70;3.13;;;22.80;72.00;;;;;;4975043;28;20451;-76
2021/07/08 09:45:24;;;;;;;5.43;3.08;;;22.80;71.80;;;;;;4991851;28;20109;-76
2021/07/08 09:47:50;;;;;;;4.57;2.83;;;22.80;71.60;;;;;;4992510;28;20031;-76
2021/07/08 09:50:25;;;;;;;4.68;2.60;;;22.90;71.50;;;;;;4975123;28;20354;-76
2021/07/08 09:53:01;;;;;;;6.03;3.03;;;23.00;71.10;;;;;;4974976;28;20033;-76
2021/07/08 09:55:33;;;;;;;5.75;2.78;;;23.10;70.80;;;;;;4974546;28;20045;-77
2021/07/08 09:58:05;;;;;;;3.78;2.63;;;23.20;70.60;;;;;;4975483;28;20029;-76
2021/07/08 10:00:33;;;;;;;5.60;2.60;;;23.20;70.10;;;;;;4974451;28;20045;-76
2021/07/08 10:03:00;;;;;;;4.18;2.53;;;23.30;70.00;;;;;;4974893;28;20033;-76
2021/07/08 10:05:26;;;;;;;4.20;2.38;;;23.40;69.80;;;;;;4992033;28;20035;-76
2021/07/08 10:07:52;;;;;;;4.97;2.72;;;23.50;69.50;;;;;;4992452;28;20128;-76
2021/07/08 10:10:18;;;;;;;5.40;2.90;;;23.60;69.20;;;;;;4974929;28;20030;-76
2021/07/08 10:12:49;;;;;;;2.80;2.03;;;23.60;68.90;;;;;;4991702;28;20038;-76
2021/07/08 10:15:16;;;;;;;5.90;3.10;;;23.60;68.90;;;;;;4974891;28;20113;-77
2021/07/08 10:17:43;;;;;;;6.95;3.13;;;23.50;68.80;;;;;;4974083;28;20022;-76
2021/07/08 10:20:14;;;;;;;4.45;2.90;;;23.40;68.80;;;;;;4991991;28;20118;-76
2021/07/08 10:22:40;;;;;;;4.07;2.28;;;23.30;68.90;;;;;;4973919;28;20374;-76
2021/07/08 10:25:08;;;;;;;6.03;3.33;;;23.30;69.00;;;;;;4974763;28;20073;-76
2021/07/08 10:27:37;;;;;;;5.00;2.60;;;23.20;68.70;;;;;;4991566;28;20033;-76
2021/07/08 10:30:05;;;;;;;5.07;2.88;;;23.20;68.60;;;;;;4974592;28;20121;-77
2021/07/08 10:32:31;;;;;;;4.70;2.78;;;23.30;68.60;;;;;;4991519;28;20058;-78
2021/07/08 10:34:57;;;;;;;5.20;2.78;;;23.30;68.30;;;;;;4974752;28;20205;-77
2021/07/08 10:37:26;;;;;;;3.58;2.20;;;23.30;68.10;;;;;;4992312;28;20097;-77
2021/07/08 10:39:53;;;;;;;5.55;2.40;;;23.40;68.00;;;;;;4974640;28;20037;-77
2021/07/08 10:42:41;;;;;;;7.05;2.97;;;23.50;67.90;;;;;;4974671;28;20030;-78
2021/07/08 10:45:07;;;;;;;4.60;2.63;;;23.50;67.30;;;;;;4974677;28;20173;-77
2021/07/08 10:47:39;;;;;;;5.60;2.85;;;23.50;67.50;;;;;;4991690;28;20033;-77
2021/07/08 10:50:36;;;;;;;5.65;2.45;;;23.50;67.40;;;;;;4974586;28;20120;-77
2021/07/08 10:53:19;;;;;;;4.68;2.75;;;23.60;67.30;;;;;;4974490;28;20037;-77
2021/07/08 10:56:07;;;;;;;4.60;2.33;;;23.60;67.00;;;;;;4974833;28;20031;-77
2021/07/08 10:58:43;;;;;;;2.97;1.90;;;23.70;66.80;;;;;;4977454;28;20019;-77
2021/07/08 11:01:35;;;;;;;4.93;2.22;;;23.90;66.40;;;;;;4977969;28;20030;-77
2021/07/08 11:04:02;;;;;;;4.22;2.83;;;24.10;66.10;;;;;;4967406;28;20034;-76
2021/07/08 11:06:46;;;;;;;2.80;1.95;;;24.20;65.60;;;;;;4977223;28;20038;-78
2021/07/08 11:09:21;;;;;;;3.67;2.40;;;24.40;65.30;;;;;;4995570;28;20359;-77
2021/07/08 11:11:48;;;;;;;5.20;2.38;;;24.40;65.20;;;;;;4977166;28;20098;-76
2021/07/08 11:14:15;;;;;;;5.88;2.35;;;24.50;65.00;;;;;;4977775;28;20025;-76
2021/07/08 11:16:42;;;;;;;7.82;3.10;;;24.60;64.90;;;;;;4977124;28;20121;-77
2021/07/08 11:19:21;;;;;;;6.40;2.53;;;24.70;64.40;;;;;;4977685;28;20031;-76
2021/07/08 11:21:51;;;;;;;7.07;2.40;;;24.80;64.10;;;;;;4968663;28;20055;-77
2021/07/08 11:24:21;;;;;;;5.97;2.90;;;24.90;63.80;;;;;;4956527;28;20104;-77
2021/07/08 11:26:58;;;;;;;3.63;2.25;;;24.90;63.50;;;;;;4956134;29;20026;-76
2021/07/08 11:29:37;;;;;;;6.97;2.33;;;24.80;63.30;;;;;;4955061;29;20487;-78
2021/07/08 11:32:26;;;;;;;4.38;2.63;;;24.90;63.40;;;;;;4954973;29;20035;-78
2021/07/08 11:35:12;;;;;;;5.13;2.00;;;25.00;62.90;;;;;;4954335;29;20507;-77
2021/07/08 11:37:44;;;;;;;2.88;1.92;;;25.10;62.70;;;;;;4954342;29;20080;-76
2021/07/08 11:40:13;;;;;;;3.22;2.05;;;25.20;62.60;;;;;;4954747;29;20472;-76
2021/07/08 11:42:41;;;;;;;2.95;2.22;;;25.40;62.30;;;;;;4954093;29;20070;-76
2021/07/08 11:45:15;;;;;;;4.85;2.33;;;25.40;62.00;;;;;;4955798;28;20051;-76
2021/07/08 11:47:43;;;;;;;3.35;2.33;;;25.50;61.60;;;;;;4955604;28;20027;-76
2021/07/08 11:50:31;;;;;;;3.78;2.40;;;25.60;61.80;;;;;;4955911;28;20101;-76
2021/07/08 11:53:15;;;;;;;4.78;2.30;;;25.70;60.80;;;;;;4954716;29;20058;-76
2021/07/08 11:55:43;;;;;;;2.67;2.13;;;25.80;60.60;;;;;;4954022;29;20027;-76
2021/07/08 11:58:10;;;;;;;2.97;2.05;;;25.80;60.40;;;;;;4955440;28;20038;-77
2021/07/08 12:00:37;;;;;;;4.07;2.05;;;25.60;60.40;;;;;;4955189;28;20055;-78
2021/07/08 12:03:27;;;;;;;2.75;2.03;;;25.50;60.50;;;;;;4954524;29;20035;-78
2021/07/08 12:05:57;;;;;;;3.30;2.00;;;25.50;60.60;;;;;;4955231;28;20036;-78
2021/07/08 12:08:39;;;;;;;4.40;2.47;;;25.50;60.60;;;;;;4953262;28;20379;-78
2021/07/08 12:11:16;;;;;;;2.72;1.88;;;25.60;60.50;;;;;;4954444;29;20445;-77
2021/07/08 12:13:56;;;;;;;3.70;1.83;;;25.80;60.20;;;;;;4953646;29;20043;-77
2021/07/08 12:16:37;;;;;;;2.08;1.70;;;26.00;59.50;;;;;;4954395;29;20379;-77
2021/07/08 12:19:24;;;;;;;;;;;26.10;59.30;;;;;;4954508;29;20030;-77
2021/07/08 12:21:52;;;;;;;4.28;1.73;;;26.00;59.30;;;;;;4953000;28;19965;-76
2021/07/08 12:24:29;;;;;;;3.30;2.00;;;26.00;59.30;;;;;;4955052;28;20042;-78
2021/07/08 12:27:00;;;;;;;3.47;1.60;;;26.10;58.70;;;;;;4953375;29;20085;-76
2021/07/08 12:29:39;;;;;;;3.28;1.60;;;26.10;58.60;;;;;;4955232;28;20102;-78
2021/07/08 12:32:08;;;;;;;4.32;1.85;;;26.20;58.30;;;;;;4953926;29;20032;-77
2021/07/08 12:34:45;;;;;;;3.40;1.73;;;26.20;58.60;;;;;;4953231;29;20082;-77
2021/07/08 12:37:27;;;;;;;3.25;1.60;;;26.40;58.00;;;;;;4954280;29;20042;-77
2021/07/08 12:39:54;;;;;;;4.07;1.80;;;26.50;57.60;;;;;;4954436;28;20031;-76
2021/07/08 12:42:22;;;;;;;3.38;1.60;;;26.40;57.40;;;;;;4954870;29;20031;-76
2021/07/08 12:44:50;;;;;;;2.75;2.08;;;26.40;57.60;;;;;;4954403;28;20031;-76
2021/07/08 12:47:16;;;;;;;3.63;2.00;;;26.40;57.70;;;;;;4954881;28;20019;-76
2021/07/08 12:49:52;;;;;;;2.42;1.85;;;26.40;57.50;;;;;;4954156;28;20487;-79
2021/07/08 12:52:19;;;;;;;3.67;2.33;;;26.40;57.40;;;;;;4953645;29;20089;-77
2021/07/08 12:54:46;;;;;;;3.20;1.90;;;26.30;57.30;;;;;;4954123;28;20105;-78
2021/07/08 12:57:14;;;;;;;3.85;2.00;;;26.30;57.30;;;;;;4953624;29;20031;-78